createdAt,value
2023-02-13T00:00:17.848Z,101345.44
2023-02-13T00:02:44.990Z,101341.53
2023-02-13T00:05:11.850Z,101331.59
2023-02-13T00:07:38.508Z,101337.56
2023-02-13T00:10:05.714Z,101333.66
2023-02-13T00:12:32.268Z,101336.94
2023-02-13T00:14:59.262Z,101339.41
2023-02-13T00:17:26.254Z,101336.50
2023-02-13T00:19:52.850Z,101330.94
2023-02-13T00:22:19.430Z,101334.66
2023-02-13T00:24:46.297Z,101329.47
2023-02-13T00:27:12.996Z,101328.69
2023-02-13T00:29:39.683Z,101329.91
2023-02-13T00:32:06.590Z,101333.66
2023-02-13T00:34:33.372Z,101332.88
2023-02-13T00:37:00.093Z,101335.78
2023-02-13T00:39:26.744Z,101338.13
2023-02-13T00:41:53.274Z,101338.78
2023-02-13T00:44:20.027Z,101335.94
2023-02-13T00:46:46.639Z,101331.47
2023-02-13T00:49:13.239Z,101331.72
2023-02-13T00:51:39.850Z,101326.97
2023-02-13T00:54:06.430Z,101322.44
2023-02-13T00:56:33.305Z,101329.03
2023-02-13T00:58:59.888Z,101330.72
2023-02-13T01:01:26.487Z,101327.44
2023-02-13T01:03:53.173Z,101329.88
2023-02-13T01:06:19.836Z,101330.31
2023-02-13T01:08:46.394Z,101331.75
2023-02-13T01:11:13.166Z,101336.50
2023-02-13T01:13:39.760Z,101331.97
2023-02-13T01:16:06.858Z,101327.63
2023-02-13T01:18:33.441Z,101327.63
2023-02-13T01:21:06.660Z,101320.88
2023-02-13T01:23:35.733Z,101329.94
2023-02-13T01:26:07.645Z,101332.38
2023-02-13T01:28:34.653Z,101325.00
2023-02-13T01:31:01.727Z,101323.38
2023-02-13T01:33:29.734Z,101332.19
2023-02-13T01:35:56.536Z,101320.69
2023-02-13T01:38:23.173Z,101328.72
2023-02-13T01:40:52.714Z,101323.97
2023-02-13T01:43:23.480Z,101338.16
2023-02-13T01:45:55.198Z,101339.44
2023-02-13T01:48:26.286Z,101324.81
2023-02-13T01:51:01.944Z,101327.88
2023-02-13T01:53:43.897Z,101332.00
2023-02-13T01:56:17.848Z,101325.25
2023-02-13T01:58:47.272Z,101328.09
2023-02-13T02:01:13.857Z,101323.59
2023-02-13T02:03:45.598Z,101323.78
2023-02-13T02:06:18.883Z,101332.84
2023-02-13T02:08:49.132Z,101333.69
2023-02-13T02:11:22.894Z,101326.47
2023-02-13T02:13:50.449Z,101336.56
2023-02-13T02:16:17.152Z,101332.44
2023-02-13T02:18:46.373Z,101321.34
2023-02-13T02:21:51.925Z,101318.03
2023-02-13T02:24:40.079Z,101321.13
2023-02-13T02:27:41.930Z,101320.09
2023-02-13T02:30:26.735Z,101322.56
2023-02-13T02:33:16.867Z,101329.97
2023-02-13T02:35:48.384Z,101321.97
2023-02-13T02:38:51.771Z,101319.28
2023-02-13T02:41:42.837Z,101315.75
2023-02-13T02:44:51.324Z,101318.44
2023-02-13T02:47:53.573Z,101319.69
2023-02-13T02:50:43.142Z,101315.56
2023-02-13T02:53:35.242Z,101313.91
2023-02-13T02:56:09.812Z,101303.41
2023-02-13T02:59:14.504Z,101314.13
2023-02-13T03:02:00.983Z,101314.13
2023-02-13T03:04:58.374Z,101317.63
2023-02-13T03:07:25.120Z,101314.13
2023-02-13T03:10:14.344Z,101326.28
2023-02-13T03:13:14.186Z,101321.75
2023-02-13T03:16:02.292Z,101315.97
2023-02-13T03:18:55.231Z,101322.56
2023-02-13T03:22:08.643Z,101324.19
2023-02-13T03:24:50.560Z,101329.97
2023-02-13T03:28:05.256Z,101328.13
2023-02-13T03:30:53.121Z,101333.03
2023-02-13T03:33:28.771Z,101324.41
2023-02-13T03:36:26.058Z,101329.13
2023-02-13T03:38:55.277Z,101328.53
2023-02-13T03:41:55.879Z,101328.31
2023-02-13T03:44:28.166Z,101329.53
2023-02-13T03:46:59.324Z,101327.69
2023-02-13T03:49:53.591Z,101321.31
2023-02-13T03:52:44.446Z,101330.38
2023-02-13T03:55:42.657Z,101319.69
2023-02-13T03:58:42.562Z,101318.03
2023-02-13T04:01:11.953Z,101324.00
2023-02-13T04:03:54.414Z,101323.16
2023-02-13T04:06:31.560Z,101324.00
2023-02-13T04:08:58.460Z,101324.19
2023-02-13T04:11:55.599Z,101318.66
2023-02-13T04:14:28.991Z,101321.31
2023-02-13T04:17:05.636Z,101328.72
2023-02-13T04:19:33.122Z,101323.38
2023-02-13T04:22:01.709Z,101330.78
2023-02-13T04:24:29.199Z,101326.47
2023-02-13T04:26:56.298Z,101329.16
2023-02-13T04:29:23.984Z,101329.16
2023-02-13T04:31:50.793Z,101334.50
2023-02-13T04:34:18.126Z,101334.50
2023-02-13T04:36:44.726Z,101333.66
2023-02-13T04:39:11.798Z,101335.72
2023-02-13T04:41:38.354Z,101336.53
2023-02-13T04:44:05.088Z,101344.19
2023-02-13T04:46:31.810Z,101341.28
2023-02-13T04:48:58.437Z,101342.72
2023-02-13T04:51:24.993Z,101341.47
2023-02-13T04:53:51.521Z,101342.31
2023-02-13T04:56:19.825Z,101337.78
2023-02-13T04:58:46.640Z,101342.09
2023-02-13T05:01:14.489Z,101341.06
2023-02-13T05:03:41.499Z,101333.03
2023-02-13T05:06:08.252Z,101339.41
2023-02-13T05:08:35.484Z,101335.09
2023-02-13T05:11:02.304Z,101334.50
2023-02-13T05:13:28.868Z,101333.06
2023-02-13T05:15:55.501Z,101333.88
2023-02-13T05:18:22.139Z,101331.19
2023-02-13T05:21:08.650Z,101348.09
2023-02-13T05:23:35.415Z,101339.63
2023-02-13T05:26:02.302Z,101349.91
2023-02-13T05:28:47.292Z,101343.94
2023-02-13T05:31:14.091Z,101341.06
2023-02-13T05:33:40.731Z,101341.06
2023-02-13T05:36:08.019Z,101351.78
2023-02-13T05:38:35.374Z,101347.44
2023-02-13T05:41:02.538Z,101350.13
2023-02-13T05:43:30.231Z,101346.84
2023-02-13T05:46:07.647Z,101350.94
2023-02-13T05:48:35.132Z,101344.94
2023-02-13T05:51:01.947Z,101347.63
2023-02-13T05:53:29.939Z,101347.63
2023-02-13T05:55:56.770Z,101347.63
2023-02-13T05:58:23.649Z,101340.25
2023-02-13T06:00:50.419Z,101343.16
2023-02-13T06:03:17.140Z,101343.44
2023-02-13T06:05:43.713Z,101337.19
2023-02-13T06:08:10.308Z,101328.53
2023-02-13T06:10:37.062Z,101322.47
2023-02-13T06:13:03.675Z,101320.53
2023-02-13T06:15:30.260Z,101323.53
2023-02-13T06:17:56.824Z,101325.69
2023-02-13T06:20:23.382Z,101325.59
2023-02-13T06:22:51.226Z,101323.56
2023-02-13T06:25:18.324Z,101326.13
2023-02-13T06:27:44.994Z,101332.72
2023-02-13T06:30:12.423Z,101335.13
2023-02-13T06:32:39.027Z,101339.31
2023-02-13T06:35:06.338Z,101350.72
2023-02-13T06:37:33.327Z,101343.69
2023-02-13T06:39:59.868Z,101346.81
2023-02-13T06:42:26.457Z,101346.44
2023-02-13T06:44:53.044Z,101357.75
2023-02-13T06:47:19.820Z,101360.03
2023-02-13T06:49:46.374Z,101359.22
2023-02-13T06:52:12.981Z,101357.97
2023-02-13T06:54:47.240Z,101363.09
2023-02-13T06:57:14.547Z,101362.06
2023-02-13T06:59:41.090Z,101362.28
2023-02-13T07:02:13.147Z,101358.16
2023-02-13T07:04:40.226Z,101373.41
2023-02-13T07:07:06.884Z,101369.50
2023-02-13T07:09:33.492Z,101365.97
2023-02-13T07:12:03.923Z,101367.81
2023-02-13T07:14:30.513Z,101375.22
2023-02-13T07:16:57.867Z,101367.81
2023-02-13T07:19:24.457Z,101370.25
2023-02-13T07:21:51.154Z,101375.53
2023-02-13T07:24:17.733Z,101381.88
2023-02-13T07:26:44.312Z,101376.47
2023-02-13T07:29:12.252Z,101389.41
2023-02-13T07:31:39.945Z,101380.53
2023-02-13T07:34:07.316Z,101386.25
2023-02-13T07:36:34.001Z,101386.47
2023-02-13T07:39:00.557Z,101386.25
2023-02-13T07:41:27.172Z,101384.19
2023-02-13T07:43:54.732Z,101383.00
2023-02-13T07:46:21.461Z,101375.41
2023-02-13T07:48:48.161Z,101383.66
2023-02-13T07:51:15.023Z,101391.88
2023-02-13T07:53:41.561Z,101390.09
2023-02-13T07:56:09.781Z,101390.31
2023-02-13T07:58:37.682Z,101397.31
2023-02-13T08:01:09.738Z,101395.66
2023-02-13T08:03:36.781Z,101384.56
2023-02-13T08:06:04.414Z,101391.56
2023-02-13T08:08:31.246Z,101384.78
2023-02-13T08:11:17.095Z,101381.69
2023-02-13T08:13:44.285Z,101390.59
2023-02-13T08:16:10.869Z,101390.81
2023-02-13T08:18:37.447Z,101394.13
2023-02-13T08:21:04.717Z,101387.97
2023-02-13T08:23:31.388Z,101384.47
2023-02-13T08:26:02.101Z,101392.50
2023-02-13T08:28:31.945Z,101395.19
2023-02-13T08:30:58.630Z,101388.22
2023-02-13T08:33:25.347Z,101391.72
2023-02-13T08:35:51.885Z,101392.53
2023-02-13T08:38:18.553Z,101400.38
2023-02-13T08:40:45.166Z,101400.78
2023-02-13T08:43:11.712Z,101409.84
2023-02-13T08:45:38.465Z,101395.00
2023-02-13T08:48:05.176Z,101396.22
2023-02-13T08:50:31.936Z,101394.59
2023-02-13T08:52:59.228Z,101398.47
2023-02-13T08:55:27.094Z,101400.75
2023-02-13T08:57:53.705Z,101405.69
2023-02-13T09:00:20.808Z,101402.75
2023-02-13T09:02:47.420Z,101396.16
2023-02-13T09:05:14.100Z,101401.47
2023-02-13T09:07:40.638Z,101399.00
2023-02-13T09:10:07.830Z,101390.09
2023-02-13T09:12:34.410Z,101396.03
2023-02-13T09:15:00.963Z,101387.53
2023-02-13T09:17:27.552Z,101390.56
2023-02-13T09:19:54.118Z,101388.28
2023-02-13T09:22:20.661Z,101395.47
2023-02-13T09:24:47.223Z,101391.72
2023-02-13T09:27:13.864Z,101383.84
2023-02-13T09:29:40.439Z,101392.66
2023-02-13T09:32:07.197Z,101393.91
2023-02-13T09:34:33.891Z,101382.72
2023-02-13T09:37:00.528Z,101387.41
2023-02-13T09:39:27.080Z,101389.03
2023-02-13T09:41:54.780Z,101388.53
2023-02-13T09:44:43.382Z,101388.28
2023-02-13T09:47:36.476Z,101388.16
2023-02-13T09:50:15.025Z,101391.56
2023-02-13T09:52:44.579Z,101381.94
2023-02-13T09:55:25.228Z,101392.63
2023-02-13T09:58:20.893Z,101391.81
2023-02-13T10:00:56.823Z,101399.00
2023-02-13T10:03:36.421Z,101390.88
2023-02-13T10:06:26.118Z,101391.19
2023-02-13T10:09:02.888Z,101396.09
2023-02-13T10:11:40.846Z,101398.47
2023-02-13T10:14:13.561Z,101403.78
2023-02-13T10:16:53.668Z,101406.72
2023-02-13T10:19:36.436Z,101399.69
2023-02-13T10:22:16.804Z,101392.09
2023-02-13T10:24:52.384Z,101397.63
2023-02-13T10:27:18.877Z,101389.22
2023-02-13T10:30:06.883Z,101395.38
2023-02-13T10:33:21.055Z,101391.06
2023-02-13T10:36:07.012Z,101394.97
2023-02-13T10:38:39.566Z,101393.47
2023-02-13T10:41:15.477Z,101392.94
2023-02-13T10:44:25.351Z,101382.22
2023-02-13T10:47:10.752Z,101390.34
2023-02-13T10:49:55.355Z,101390.53
2023-02-13T10:53:00.138Z,101387.97
2023-02-13T10:55:32.723Z,101384.50
2023-02-13T10:58:14.290Z,101381.38
2023-02-13T11:00:44.486Z,101383.16
2023-02-13T11:03:30.315Z,101380.25
2023-02-13T11:05:59.914Z,101373.09
2023-02-13T11:08:40.819Z,101368.44
2023-02-13T11:11:34.494Z,101362.44
2023-02-13T11:14:10.055Z,101368.44
2023-02-13T11:16:57.444Z,101360.56
2023-02-13T11:19:52.015Z,101362.78
2023-02-13T11:22:30.504Z,101363.25
2023-02-13T11:25:19.208Z,101362.19
2023-02-13T11:27:47.879Z,101350.03
2023-02-13T11:30:23.186Z,101356.47
2023-02-13T11:33:02.421Z,101354.09
2023-02-13T11:35:32.516Z,101351.84
2023-02-13T11:38:15.725Z,101348.94
2023-02-13T11:40:45.082Z,101359.34
2023-02-13T11:43:29.195Z,101356.75
2023-02-13T11:46:08.595Z,101345.59
2023-02-13T11:48:35.760Z,101351.19
2023-02-13T11:51:03.590Z,101344.03
2023-02-13T11:53:36.464Z,101345.03
2023-02-13T11:56:11.096Z,101340.28
2023-02-13T11:58:38.584Z,101325.25
2023-02-13T12:01:25.799Z,101336.75
2023-02-13T12:04:05.261Z,101330.22
2023-02-13T12:06:39.693Z,101339.41
2023-02-13T12:09:15.371Z,101329.91
2023-02-13T12:11:53.715Z,101334.34
2023-02-13T12:14:23.015Z,101319.31
2023-02-13T12:17:07.218Z,101321.53
2023-02-13T12:19:41.987Z,101320.31
2023-02-13T12:22:40.568Z,101320.63
2023-02-13T12:25:45.433Z,101310.47
2023-02-13T12:28:16.904Z,101302.53
2023-02-13T12:30:52.683Z,101305.31
2023-02-13T12:33:25.194Z,101308.66
2023-02-13T12:36:25.265Z,101300.88
2023-02-13T12:39:18.265Z,101305.59
2023-02-13T12:42:12.350Z,101299.22
2023-02-13T12:44:57.726Z,101283.88
2023-02-13T12:47:29.217Z,101292.88
2023-02-13T12:50:14.169Z,101286.06
2023-02-13T12:52:52.068Z,101280.09
2023-02-13T12:55:49.000Z,101271.75
2023-02-13T12:58:33.832Z,101269.91
2023-02-13T13:01:37.713Z,101269.72
2023-02-13T13:04:36.601Z,101267.63
2023-02-13T13:07:06.144Z,101268.81
2023-02-13T13:09:56.037Z,101263.19
2023-02-13T13:12:25.570Z,101262.97
2023-02-13T13:15:23.218Z,101253.28
2023-02-13T13:18:02.086Z,101256.91
2023-02-13T13:21:10.034Z,101253.97
2023-02-13T13:23:39.435Z,101248.66
2023-02-13T13:26:26.268Z,101241.09
2023-02-13T13:28:56.572Z,101234.34
2023-02-13T13:31:26.335Z,101231.69
2023-02-13T13:33:58.356Z,101232.06
2023-02-13T13:36:46.217Z,101231.66
2023-02-13T13:39:29.824Z,101230.13
2023-02-13T13:42:01.053Z,101223.75
2023-02-13T13:44:42.789Z,101222.25
2023-02-13T13:47:39.338Z,101224.59
2023-02-13T13:50:18.017Z,101220.28
2023-02-13T13:53:05.859Z,101216.19
2023-02-13T13:55:50.518Z,101211.00
2023-02-13T13:58:31.308Z,101207.13
2023-02-13T14:01:24.197Z,101203.72
2023-02-13T14:03:52.103Z,101197.81
2023-02-13T14:06:22.187Z,101196.03
2023-02-13T14:08:49.366Z,101202.69
2023-02-13T14:11:36.183Z,101206.31
2023-02-13T14:14:27.870Z,101188.06
2023-02-13T14:16:59.787Z,101203.69
2023-02-13T14:19:43.535Z,101200.88
2023-02-13T14:22:19.010Z,101190.09
2023-02-13T14:24:55.531Z,101191.25
2023-02-13T14:27:34.213Z,101184.63
2023-02-13T14:30:01.947Z,101188.63
2023-02-13T14:32:31.438Z,101186.63
2023-02-13T14:35:02.397Z,101181.19
2023-02-13T14:37:47.937Z,101187.13
2023-02-13T14:40:20.269Z,101181.47
2023-02-13T14:42:53.755Z,101188.56
2023-02-13T14:45:27.321Z,101179.59
2023-02-13T14:47:57.206Z,101181.50
2023-02-13T14:50:32.690Z,101177.75
2023-02-13T14:53:03.937Z,101175.75
2023-02-13T14:55:42.947Z,101168.44
2023-02-13T14:58:20.548Z,101174.47
2023-02-13T15:00:55.010Z,101164.03
2023-02-13T15:03:54.544Z,101170.56
2023-02-13T15:06:34.063Z,101170.63
2023-02-13T15:09:04.698Z,101171.03
2023-02-13T15:11:45.356Z,101166.72
2023-02-13T15:14:19.097Z,101165.75
2023-02-13T15:16:50.697Z,101166.19
2023-02-13T15:19:20.182Z,101169.41
2023-02-13T15:21:53.947Z,101169.41
2023-02-13T15:24:25.034Z,101170.88
2023-02-13T15:27:20.191Z,101176.97
2023-02-13T15:30:12.551Z,101168.78
2023-02-13T15:32:39.052Z,101175.19
2023-02-13T15:35:31.111Z,101174.09
2023-02-13T15:37:59.124Z,101172.91
2023-02-13T15:40:37.194Z,101182.28
2023-02-13T15:43:04.037Z,101184.06
2023-02-13T15:45:30.869Z,101174.66
2023-02-13T15:47:58.099Z,101176.94
2023-02-13T15:50:24.615Z,101178.66
2023-02-13T15:52:51.751Z,101181.75
2023-02-13T15:55:21.459Z,101184.34
2023-02-13T15:57:48.795Z,101179.31
2023-02-13T16:00:27.507Z,101179.75
2023-02-13T16:02:55.992Z,101175.84
2023-02-13T16:05:38.893Z,101175.75
2023-02-13T16:08:27.462Z,101180.94
2023-02-13T16:11:29.799Z,101180.47
2023-02-13T16:13:56.329Z,101186.56
2023-02-13T16:16:24.109Z,101181.00
2023-02-13T16:18:52.128Z,101177.91
2023-02-13T16:21:29.196Z,101182.34
2023-02-13T16:24:02.477Z,101195.50
2023-02-13T16:26:29.281Z,101189.41
2023-02-13T16:28:55.918Z,101193.34
2023-02-13T16:31:22.819Z,101188.66
2023-02-13T16:33:49.620Z,101186.34
2023-02-13T16:36:16.138Z,101181.03
2023-02-13T16:38:48.028Z,101190.84
2023-02-13T16:41:17.289Z,101197.38
2023-02-13T16:44:04.138Z,101195.00
2023-02-13T16:46:41.231Z,101196.53
2023-02-13T16:49:10.668Z,101192.59
2023-02-13T16:51:58.485Z,101194.16
2023-02-13T16:54:38.028Z,101197.47
2023-02-13T16:57:20.845Z,101208.78
2023-02-13T16:59:47.356Z,101209.16
2023-02-13T17:02:14.421Z,101212.69
2023-02-13T17:04:50.269Z,101209.56
2023-02-13T17:07:30.024Z,101216.38
2023-02-13T17:10:20.650Z,101217.78
2023-02-13T17:12:48.601Z,101219.19
2023-02-13T17:15:18.454Z,101213.09
2023-02-13T17:17:45.875Z,101214.50
2023-02-13T17:20:17.973Z,101220.84
2023-02-13T17:22:46.482Z,101219.06
2023-02-13T17:25:29.510Z,101219.88
2023-02-13T17:27:58.893Z,101214.59
2023-02-13T17:30:29.152Z,101223.63
2023-02-13T17:32:59.563Z,101222.66
2023-02-13T17:35:26.407Z,101225.03
2023-02-13T17:37:53.087Z,101228.63
2023-02-13T17:40:21.974Z,101227.69
2023-02-13T17:42:53.341Z,101220.53
2023-02-13T17:45:22.907Z,101226.81
2023-02-13T17:47:49.748Z,101227.75
2023-02-13T17:50:17.503Z,101228.66
2023-02-13T17:52:45.819Z,101225.78
2023-02-13T17:55:26.969Z,101224.63
2023-02-13T17:57:56.547Z,101222.38
2023-02-13T18:00:28.014Z,101229.28
2023-02-13T18:02:55.317Z,101226.44
2023-02-13T18:05:22.465Z,101230.63
2023-02-13T18:07:49.557Z,101238.56
2023-02-13T18:10:37.254Z,101232.31
2023-02-13T18:13:04.538Z,101238.72
2023-02-13T18:15:36.246Z,101236.72
2023-02-13T18:18:02.857Z,101235.16
2023-02-13T18:20:29.872Z,101236.41
2023-02-13T18:22:56.405Z,101228.22
2023-02-13T18:25:23.724Z,101242.31
2023-02-13T18:27:50.307Z,101234.13
2023-02-13T18:30:19.721Z,101229.66
2023-02-13T18:32:51.928Z,101234.88
2023-02-13T18:35:18.997Z,101232.66
2023-02-13T18:37:45.668Z,101235.75
2023-02-13T18:40:14.995Z,101244.25
2023-02-13T18:42:41.634Z,101235.00
2023-02-13T18:45:08.720Z,101239.38
2023-02-13T18:47:35.324Z,101240.28
2023-02-13T18:50:01.928Z,101239.09
2023-02-13T18:52:28.470Z,101229.84
2023-02-13T18:54:55.614Z,101233.19
2023-02-13T18:57:22.473Z,101240.03
2023-02-13T18:59:49.045Z,101239.66
2023-02-13T19:02:15.685Z,101235.97
2023-02-13T19:04:42.458Z,101240.97
2023-02-13T19:07:09.010Z,101238.50
2023-02-13T19:09:40.045Z,101245.34
2023-02-13T19:12:07.418Z,101244.16
2023-02-13T19:14:34.041Z,101240.28
2023-02-13T19:17:00.683Z,101235.34
2023-02-13T19:19:27.297Z,101248.97
2023-02-13T19:21:53.884Z,101243.22
2023-02-13T19:24:20.455Z,101252.53
2023-02-13T19:26:47.401Z,101256.06
2023-02-13T19:29:13.979Z,101259.44
2023-02-13T19:31:41.400Z,101260.72
2023-02-13T19:34:08.194Z,101270.66
2023-02-13T19:36:34.998Z,101264.53
2023-02-13T19:39:04.086Z,101272.38
2023-02-13T19:41:31.627Z,101272.44
2023-02-13T19:43:58.658Z,101273.06
2023-02-13T19:46:30.270Z,101272.06
2023-02-13T19:48:57.065Z,101277.84
2023-02-13T19:51:27.678Z,101282.81
2023-02-13T19:54:12.876Z,101274.41
2023-02-13T19:56:40.815Z,101275.44
2023-02-13T19:59:10.539Z,101265.16
2023-02-13T20:01:37.225Z,101267.44
2023-02-13T20:04:03.759Z,101269.69
2023-02-13T20:06:35.012Z,101274.66
2023-02-13T20:09:04.787Z,101273.22
2023-02-13T20:11:31.422Z,101269.31
2023-02-13T20:14:03.962Z,101271.38
2023-02-13T20:16:33.075Z,101274.91
2023-02-13T20:19:07.030Z,101266.47
2023-02-13T20:21:35.145Z,101275.13
2023-02-13T20:24:03.134Z,101269.16
2023-02-13T20:26:30.643Z,101275.56
2023-02-13T20:28:59.957Z,101279.69
2023-02-13T20:31:29.073Z,101284.63
2023-02-13T20:33:56.299Z,101286.06
2023-02-13T20:36:25.986Z,101290.81
2023-02-13T20:38:55.131Z,101290.41
2023-02-13T20:41:24.461Z,101296.19
2023-02-13T20:43:52.195Z,101287.97
2023-02-13T20:46:19.215Z,101293.75
2023-02-13T20:48:48.015Z,101299.50
2023-02-13T20:51:16.122Z,101294.56
2023-02-13T20:53:43.901Z,101288.81
2023-02-13T20:56:13.519Z,101294.78
2023-02-13T20:58:41.668Z,101297.25
2023-02-13T21:01:35.688Z,101297.06
2023-02-13T21:04:02.443Z,101297.28
2023-02-13T21:06:31.715Z,101290.88
2023-02-13T21:08:58.924Z,101293.97
2023-02-13T21:11:26.330Z,101294.59
2023-02-13T21:13:52.870Z,101291.28
2023-02-13T21:16:22.961Z,101294.16
2023-02-13T21:18:52.373Z,101290.06
2023-02-13T21:21:20.261Z,101282.22
2023-02-13T21:23:47.539Z,101288.63
2023-02-13T21:26:17.067Z,101284.28
2023-02-13T21:28:48.480Z,101288.19
2023-02-13T21:31:18.918Z,101285.94
2023-02-13T21:33:46.056Z,101288.59
2023-02-13T21:36:13.371Z,101283.06
2023-02-13T21:38:40.950Z,101280.56
2023-02-13T21:41:13.315Z,101275.22
2023-02-13T21:43:42.068Z,101271.94
2023-02-13T21:46:14.581Z,101270.09
2023-02-13T21:48:42.011Z,101274.81
2023-02-13T21:51:17.134Z,101275.22
2023-02-13T21:53:44.970Z,101269.06
2023-02-13T21:56:14.214Z,101264.13
2023-02-13T21:58:42.424Z,101256.28
2023-02-13T22:01:25.400Z,101266.38
2023-02-13T22:04:00.141Z,101260.41
2023-02-13T22:06:28.729Z,101262.03
2023-02-13T22:09:03.904Z,101263.91
2023-02-13T22:11:30.846Z,101267.38
2023-02-13T22:14:01.697Z,101259.78
2023-02-13T22:16:30.098Z,101269.06
2023-02-13T22:18:57.149Z,101264.31
2023-02-13T22:21:25.433Z,101255.66
2023-02-13T22:23:53.143Z,101259.38
2023-02-13T22:26:19.710Z,101254.03
2023-02-13T22:28:47.280Z,101255.44
2023-02-13T22:31:15.103Z,101254.66
2023-02-13T22:33:42.986Z,101246.41
2023-02-13T22:36:13.140Z,101250.72
2023-02-13T22:38:41.100Z,101239.84
2023-02-13T22:41:14.291Z,101248.06
2023-02-13T22:43:41.816Z,101246.22
2023-02-13T22:46:10.717Z,101253.41
2023-02-13T22:48:38.998Z,101252.59
2023-02-13T22:51:08.867Z,101258.34
2023-02-13T22:53:36.617Z,101255.06
2023-02-13T22:56:04.863Z,101249.28
2023-02-13T22:58:31.664Z,101254.19
2023-02-13T23:00:58.836Z,101261.41
2023-02-13T23:03:25.828Z,101252.56
2023-02-13T23:05:52.413Z,101253.56
2023-02-13T23:08:19.377Z,101259.94
2023-02-13T23:11:08.472Z,101263.03
2023-02-13T23:13:35.438Z,101270.63
2023-02-13T23:16:02.035Z,101263.41
2023-02-13T23:18:28.717Z,101272.03
2023-02-13T23:20:55.263Z,101275.94
2023-02-13T23:23:22.380Z,101268.09
2023-02-13T23:25:48.977Z,101269.13
2023-02-13T23:28:15.617Z,101270.16
2023-02-13T23:30:42.314Z,101277.16
2023-02-13T23:33:08.975Z,101266.88
2023-02-13T23:35:35.550Z,101266.25
2023-02-13T23:38:02.129Z,101265.63
2023-02-13T23:40:28.755Z,101262.75
2023-02-13T23:42:55.276Z,101264.78
2023-02-13T23:45:21.830Z,101256.16
2023-02-13T23:47:48.391Z,101258.19
2023-02-13T23:50:14.977Z,101252.22
2023-02-13T23:52:41.529Z,101253.25
2023-02-13T23:55:08.433Z,101246.25
2023-02-13T23:57:35.631Z,101250.56
